Time;durP1;ratioP1;P1;durP2;ratioP2;P2;SDS_P1;SDS_P2;PMS_P1;PMS_P2;Temp;Humidity;BMP_temperature;BMP_pressure;BME280_temperature;BME280_humidity;BME280_pressure;Samples;Min_cycle;Max_cycle;Signal;HPM_P1;HPM_P2
2022/06/12 00:08:57;;;;;;;7.05;3.55;;;;;;;20.03;64.91;100806.97;18420113;32;20108;-66
2022/06/12 00:19:02;;;;;;;4.95;2.80;;;;;;;19.92;64.30;100802.00;18420502;32;20103;-66
2022/06/12 00:29:08;;;;;;;4.70;2.90;;;;;;;19.99;60.94;100783.28;18419383;32;20115;-66
2022/06/12 00:39:13;;;;;;;5.37;3.00;;;;;;;20.51;57.57;100778.69;18418563;32;20129;-66
2022/06/12 00:49:20;;;;;;;5.60;2.80;;;;;;;20.46;59.23;100756.81;18418203;32;20175;-66
2022/06/12 00:59:34;;;;;;;6.37;3.30;;;;;;;20.34;59.66;100755.47;18417606;32;20085;-66
2022/06/12 01:09:40;;;;;;;5.12;2.62;;;;;;;19.82;63.84;100756.44;18422701;32;20097;-66
2022/06/12 01:19:49;;;;;;;5.45;2.72;;;;;;;19.69;59.55;100747.16;18426573;32;20108;-66
2022/06/12 01:29:58;;;;;;;4.25;2.37;;;;;;;20.13;56.57;100741.22;18426539;32;20096;-66
2022/06/12 01:40:09;;;;;;;6.75;2.40;;;;;;;20.58;54.37;100726.31;18426238;32;20404;-66
2022/06/12 01:50:18;;;;;;;4.25;2.75;;;;;;;20.63;57.00;100724.31;18426533;32;20085;-66
2022/06/12 02:00:23;;;;;;;4.90;2.60;;;;;;;20.66;57.32;100732.16;18425350;32;20451;-66
2022/06/12 02:10:31;;;;;;;4.90;2.83;;;;;;;20.20;59.42;100731.25;18426013;32;20174;-66
2022/06/12 02:20:47;;;;;;;5.60;3.12;;;;;;;19.79;61.19;100724.75;18424691;32;20342;-66
2022/06/12 02:30:55;;;;;;;5.32;2.87;;;;;;;19.46;62.31;100732.97;18424126;32;20103;-66
2022/06/12 02:41:02;;;;;;;6.30;2.95;;;;;;;19.30;64.22;100726.44;18423724;32;20111;-66
2022/06/12 02:51:14;;;;;;;7.20;3.22;;;;;;;18.53;66.61;100739.38;18423358;32;20069;-66
2022/06/12 03:01:19;;;;;;;5.22;2.80;;;;;;;18.30;67.03;100746.22;18423137;32;20097;-66
2022/06/12 03:11:26;;;;;;;6.03;3.12;;;;;;;17.89;69.07;100757.00;18475946;31;20116;-66
2022/06/12 03:21:39;;;;;;;5.95;2.90;;;;;;;18.06;68.07;100761.00;18422254;32;20101;-66
2022/06/12 03:31:47;;;;;;;4.85;2.75;;;;;;;17.74;69.87;100768.00;18421561;32;20162;-66
2022/06/12 03:41:55;;;;;;;6.22;3.20;;;;;;;17.89;68.39;100764.91;18421437;32;20085;-66
2022/06/12 03:52:03;;;;;;;5.45;2.97;;;;;;;18.50;66.82;100771.19;18420950;32;20084;-66
2022/06/12 04:02:10;;;;;;;5.20;2.97;;;;;;;18.83;65.67;100773.75;18420422;32;20077;-66
2022/06/12 04:12:20;;;;;;;4.72;2.95;;;;;;;19.32;64.82;100782.84;18419743;31;20085;-66
2022/06/12 04:22:26;;;;;;;6.15;2.67;;;;;;;19.68;65.38;100779.87;18419612;32;20107;-66
2022/06/12 04:32:31;;;;;;;4.55;2.40;;;;;;;20.78;62.44;100788.31;18420005;32;20089;-67
2022/06/12 04:42:35;;;;;;;4.87;2.42;;;;;;;23.78;55.11;100783.00;18422101;32;20100;-67
2022/06/12 04:52:39;;;;;;;4.05;2.30;;;;;;;24.47;49.34;100772.28;18427918;32;20109;-67
2022/06/12 05:02:43;;;;;;;3.97;2.12;;;;;;;26.11;45.33;100782.50;18427517;32;20395;-67
2022/06/12 05:12:48;;;;;;;7.43;3.75;;;;;;;25.37;47.87;100778.88;18427062;31;20136;-67
2022/06/12 05:22:51;;;;;;;4.45;1.83;;;;;;;25.40;46.03;100782.22;18426841;32;20147;-67
2022/06/12 05:32:57;;;;;;;3.83;2.20;;;;;;;25.47;45.74;100774.72;18479165;31;20092;-67
2022/06/12 05:43:01;;;;;;;4.25;2.17;;;;;;;25.07;47.40;100783.22;18426142;32;20476;-66
2022/06/12 05:53:05;;;;;;;3.80;1.70;;;;;;;24.28;49.91;100798.22;18414706;32;20471;-66
2022/06/12 06:03:09;;;;;;;4.18;2.10;;;;;;;23.93;51.54;100808.00;18364554;32;20089;-67
2022/06/12 06:13:14;;;;;;;3.42;1.80;;;;;;;24.18;51.16;100805.88;18360540;32;20448;-67
2022/06/12 06:23:18;;;;;;;4.85;2.20;;;;;;;25.70;45.45;100804.56;18360556;32;20385;-66
2022/06/12 06:33:23;;;;;;;3.60;2.12;;;;;;;25.82;45.33;100811.88;18360129;32;20090;-66
2022/06/12 06:43:26;;;;;;;3.33;2.15;;;;;;;26.38;44.48;100808.53;18360792;32;20107;-66
2022/06/12 06:53:31;;;;;;;3.97;1.90;;;;;;;26.31;45.80;100808.00;18359337;32;20112;-66
2022/06/12 07:03:34;;;;;;;3.92;1.98;;;;;;;26.43;41.93;100809.06;18358623;32;20101;-67
2022/06/12 07:13:39;;;;;;;3.50;2.00;;;;;;;26.13;41.95;100807.31;18358419;32;20117;-67
2022/06/12 07:23:42;;;;;;;2.37;1.75;;;;;;;27.63;38.15;100801.38;18358420;32;20147;-67
2022/06/12 07:33:47;;;;;;;4.50;2.08;;;;;;;29.48;37.08;100796.34;18356828;32;20141;-67
2022/06/12 07:43:50;;;;;;;4.32;2.05;;;;;;;30.40;34.02;100791.97;18356842;32;20111;-67
2022/06/12 07:53:55;;;;;;;8.07;2.33;;;;;;;30.11;33.05;100788.91;18356907;32;20146;-67
2022/06/12 08:03:59;;;;;;;6.10;2.12;;;;;;;28.60;39.64;100794.72;18356385;32;20085;-67
2022/06/12 08:14:04;;;;;;;4.43;2.25;;;;;;;28.63;39.24;100776.56;18354916;32;20147;-67
2022/06/12 08:24:13;;;;;;;5.70;2.00;;;;;;;28.21;40.21;100789.44;18355694;32;20101;-67
2022/06/12 08:34:22;;;;;;;3.55;1.98;;;;;;;28.78;37.50;100771.88;18354989;32;20102;-67
2022/06/12 08:44:32;;;;;;;4.47;1.90;;;;;;;28.58;37.25;100765.31;18354233;31;20135;-67
2022/06/12 08:54:40;;;;;;;12.75;10.90;;;;;;;28.77;40.50;100762.13;18353802;32;20365;-67
2022/06/12 09:04:43;;;;;;;3.47;1.98;;;;;;;30.14;33.19;100759.03;18353639;32;20104;-67
2022/06/12 09:15:05;;;;;;;2.78;1.70;;;;;;;28.48;36.88;100775.00;18352545;32;20373;-67
2022/06/12 09:25:15;;;;;;;2.75;1.70;;;;;;;30.24;33.72;100761.88;18352801;32;20137;-67
2022/06/12 09:35:31;;;;;;;2.97;1.90;;;;;;;30.41;32.48;100760.50;18363397;32;20124;-67
2022/06/12 09:45:44;;;;;;;7.32;3.87;;;;;;;30.62;32.48;100747.12;18361935;32;20085;-67
2022/06/12 09:55:55;;;;;;;3.28;1.87;;;;;;;30.13;36.50;100750.13;18361378;32;20105;-67
2022/06/12 10:06:01;;;;;;;7.57;4.07;;;;;;;29.81;34.32;100739.19;18361136;32;20338;-67
2022/06/12 10:16:10;;;;;;;4.12;2.00;;;;;;;29.76;35.29;100729.63;18360541;31;20098;-67
2022/06/12 10:26:19;;;;;;;3.33;1.70;;;;;;;30.36;33.29;100711.56;18414356;31;20432;-67
2022/06/12 10:36:27;;;;;;;3.20;1.80;;;;;;;30.50;33.35;100711.28;18360087;32;20100;-67
2022/06/12 10:46:32;;;;;;;4.10;1.80;;;;;;;30.67;31.81;100703.69;18360219;32;20093;-67
2022/06/12 10:56:42;;;;;;;4.57;1.98;;;;;;;30.82;32.44;100698.84;18359093;32;20413;-67
2022/06/12 11:06:49;;;;;;;4.18;1.95;;;;;;;30.57;32.96;100688.25;18411688;31;20124;-68
2022/06/12 11:17:04;;;;;;;3.53;1.83;;;;;;;30.92;29.90;100682.75;18411051;31;20108;-67
2022/06/12 11:27:29;;;;;;;3.60;2.00;;;;;;;31.20;28.46;100670.47;18357991;32;20108;-67
2022/06/12 11:37:51;;;;;;;4.12;1.77;;;;;;;30.41;33.80;100668.94;18360306;31;20145;-67
2022/06/12 11:48:08;;;;;;;3.78;2.10;;;;;;;30.81;33.12;100664.81;18357392;32;20088;-67
2022/06/12 11:58:24;;;;;;;4.57;2.15;;;;;;;31.40;32.25;100665.22;18355934;32;20089;-68
2022/06/12 12:08:37;;;;;;;2.83;1.70;;;;;;;31.09;33.80;100657.91;18408715;31;20101;-67
2022/06/12 12:18:44;;;;;;;3.60;1.92;;;;;;;32.02;32.54;100654.47;18355623;32;20108;-67
2022/06/12 12:28:50;;;;;;;4.25;1.77;;;;;;;30.43;31.04;100631.97;18355441;32;20111;-67
2022/06/12 12:49:25;;;;;;;5.93;1.98;;;;;;;31.41;31.94;100616.56;18354438;32;20089;-67
2022/06/12 12:59:38;;;;;;;4.50;1.70;;;;;;;31.68;34.21;100601.62;18354558;32;20097;-67
2022/06/12 13:09:54;;;;;;;4.20;2.17;;;;;;;31.68;28.45;100589.97;18363046;32;20109;-67
2022/06/12 13:20:43;;;;;;;2.83;1.95;;;;;;;31.10;32.19;100588.69;18362527;32;20098;-67
2022/06/12 13:30:46;;;;;;;4.62;1.77;;;;;;;31.34;31.89;100585.72;18413314;32;20109;-67
2022/06/12 13:40:58;;;;;;;3.70;1.85;;;;;;;31.70;30.67;100571.78;18413165;32;20121;-67
2022/06/12 13:51:07;;;;;;;2.25;1.73;;;;;;;31.27;32.76;100574.62;18431244;32;20211;-67
2022/06/12 14:01:20;;;;;;;3.58;2.03;;;;;;;31.76;29.83;100565.84;18379248;32;20097;-67
2022/06/12 14:11:25;;;;;;;2.70;1.87;;;;;;;31.76;32.59;100546.97;18360637;32;20765;-67
2022/06/12 14:21:34;;;;;;;2.78;1.77;;;;;;;31.74;31.91;100548.09;18360635;32;20505;-67
2022/06/12 14:31:38;;;;;;;6.28;2.08;;;;;;;30.63;36.33;100552.19;18361464;32;20107;-67
2022/06/12 14:41:50;;;;;;;3.58;1.90;;;;;;;30.55;34.23;100552.84;18359378;31;20397;-67
2022/06/12 14:51:53;;;;;;;3.05;1.65;;;;;;;31.12;32.87;100539.06;18359290;32;20165;-66
2022/06/12 15:01:58;;;;;;;3.00;1.70;;;;;;;31.28;32.08;100535.03;18368223;32;20085;-67
2022/06/12 15:12:03;;;;;;;5.28;2.03;;;;;;;30.58;32.74;100522.97;18389709;32;20151;-69
2022/06/12 15:22:11;;;;;;;3.72;1.90;;;;;;;31.12;32.83;100524.69;18367077;32;20120;-67
2022/06/12 15:32:15;;;;;;;3.78;2.03;;;;;;;30.88;32.33;100509.72;18358655;32;20113;-67
2022/06/12 15:42:23;;;;;;;2.58;1.90;;;;;;;30.80;33.03;100507.66;18357451;32;20093;-67
2022/06/12 15:52:28;;;;;;;3.12;1.90;;;;;;;30.66;33.22;100500.78;18357097;32;20118;-67
2022/06/12 16:02:34;;;;;;;2.87;1.70;;;;;;;30.50;32.87;100492.28;18356463;32;20074;-67
2022/06/12 16:12:38;;;;;;;3.47;1.60;;;;;;;30.28;32.18;100488.72;18348647;32;225661;-67
2022/06/12 16:22:43;;;;;;;3.00;1.90;;;;;;;29.97;33.09;100484.03;18354848;32;20115;-67
2022/06/12 16:32:49;;;;;;;2.70;1.55;;;;;;;30.29;32.38;100474.25;18355461;32;20108;-67
2022/06/12 16:42:53;;;;;;;2.80;1.45;;;;;;;30.28;32.63;100480.63;18353938;32;20085;-67
2022/06/12 16:52:57;;;;;;;2.05;1.60;;;;;;;29.94;32.59;100472.69;18354614;32;20102;-67
2022/06/12 17:03:02;;;;;;;2.97;1.60;;;;;;;29.66;33.44;100469.59;18407128;31;20089;-67
2022/06/12 17:13:06;;;;;;;2.78;1.52;;;;;;;29.63;32.99;100470.72;18353232;31;20085;-67
2022/06/12 17:34:49;;;;;;;2.97;1.62;;;;;;;29.21;37.27;100472.22;18400042;31;20148;-67
2022/06/12 17:44:54;;;;;;;10.07;1.70;;;;;;;28.52;37.59;100487.38;18405871;31;20112;-67
2022/06/12 17:54:57;;;;;;;2.30;1.30;;;;;;;28.36;38.78;100481.47;18360608;32;20152;-67
2022/06/12 18:05:06;;;;;;;2.40;1.20;;;;;;;27.93;38.12;100490.91;18361129;32;20106;-67
2022/06/12 18:25:33;;;;;;;2.33;1.50;;;;;;;26.73;45.05;100497.47;18413806;31;20372;-67
2022/06/12 18:35:41;;;;;;;2.85;1.60;;;;;;;25.79;47.95;100501.06;18359887;32;20125;-66
2022/06/12 18:45:45;;;;;;;3.90;1.90;;;;;;;25.29;48.48;100497.00;18357572;32;20107;-67
2022/06/12 18:55:49;;;;;;;4.28;1.65;;;;;;;24.30;53.10;100517.12;18382275;32;20366;-66
2022/06/12 19:05:55;;;;;;;2.83;1.60;;;;;;;23.93;54.55;100525.41;18355338;32;20106;-66
2022/06/12 19:15:58;;;;;;;4.22;2.03;;;;;;;23.22;57.53;100538.09;18357772;32;20101;-67
2022/06/12 19:26:03;;;;;;;4.47;1.67;;;;;;;23.27;56.97;100548.50;18357235;32;20467;-66
2022/06/12 19:36:07;;;;;;;5.35;2.12;;;;;;;23.13;56.75;100558.06;18371135;32;20109;-66
2022/06/12 19:46:12;;;;;;;3.92;2.03;;;;;;;22.47;58.64;100546.31;18420240;32;20174;-66
2022/06/12 19:56:16;;;;;;;4.95;2.30;;;;;;;21.90;59.93;100548.16;18416888;32;20389;-66
2022/06/12 20:16:42;;;;;;;3.72;2.22;;;;;;;21.80;60.28;100549.53;18406683;31;20128;-66
2022/06/12 20:26:48;;;;;;;4.32;2.30;;;;;;;21.62;60.16;100543.22;18418864;32;20108;-66
2022/06/12 20:36:51;;;;;;;5.05;2.28;;;;;;;21.49;60.35;100535.00;18468774;31;20092;-66
2022/06/12 20:46:56;;;;;;;6.00;2.20;;;;;;;20.88;63.11;100545.63;18371484;32;20090;-66
2022/06/12 20:56:59;;;;;;;5.72;2.60;;;;;;;20.84;64.03;100544.00;18382856;32;20102;-67
2022/06/12 21:07:04;;;;;;;5.72;2.42;;;;;;;20.71;65.36;100548.94;18381187;32;20092;-66
2022/06/12 21:17:07;;;;;;;5.70;2.80;;;;;;;21.41;61.42;100553.91;18381704;32;20145;-66
2022/06/12 21:27:12;;;;;;;5.78;2.58;;;;;;;21.72;59.94;100579.13;18472028;31;20097;-66
2022/06/12 21:37:16;;;;;;;6.70;2.90;;;;;;;21.71;60.64;100577.38;18479627;31;20156;-66
2022/06/12 21:47:21;;;;;;;4.37;2.50;;;;;;;21.75;60.67;100581.62;18427130;32;20105;-66
2022/06/12 21:57:25;;;;;;;6.22;2.92;;;;;;;21.65;61.22;100582.97;18425760;32;20105;-66
2022/06/12 22:07:29;;;;;;;5.30;2.30;;;;;;;21.46;62.50;100589.09;18425325;32;20088;-66
2022/06/12 22:17:33;;;;;;;4.32;2.55;;;;;;;21.61;62.08;100584.88;18424999;32;20183;-66
2022/06/12 22:27:38;;;;;;;3.62;2.25;;;;;;;21.22;63.42;100588.41;18424781;32;20116;-66
2022/06/12 22:37:41;;;;;;;7.60;3.08;;;;;;;21.06;63.90;100596.19;18423226;32;20408;-67
2022/06/12 22:47:45;;;;;;;4.60;2.50;;;;;;;20.69;65.96;100601.19;18423907;32;20097;-68
2022/06/12 22:57:49;;;;;;;5.53;2.60;;;;;;;20.54;66.89;100593.91;18423365;32;20108;-67
2022/06/12 23:07:53;;;;;;;5.28;2.83;;;;;;;19.93;68.18;100598.88;18422974;32;20081;-67
2022/06/12 23:17:56;;;;;;;5.50;2.60;;;;;;;19.62;70.77;100587.66;18422318;32;20136;-67
2022/06/12 23:28:01;;;;;;;6.62;3.00;;;;;;;19.92;69.09;100587.41;18422251;32;20093;-68
2022/06/12 23:38:05;;;;;;;5.43;2.83;;;;;;;19.49;70.28;100591.66;18421922;32;20637;-68
2022/06/12 23:48:11;;;;;;;6.25;2.95;;;;;;;19.14;71.29;100584.06;18421268;32;20432;-67
2022/06/12 23:58:14;;;;;;;7.25;3.20;;;;;;;19.39;70.18;100585.84;18421307;32;20107;-67
